Time;durP1;ratioP1;P1;durP2;ratioP2;P2;SDS_P1;SDS_P2;PMS_P1;PMS_P2;Temp;Humidity;BMP_temperature;BMP_pressure;BME280_temperature;BME280_humidity;BME280_pressure;Samples;Min_cycle;Max_cycle;Signal;HPM_P1;HPM_P2
2024/01/31 00:00:09;;;;;;;4.45;2.38;;;11.80;84.60;;;;;;4958513;28;20032;-79
2024/01/31 00:02:36;;;;;;;4.80;2.30;;;11.80;84.60;;;;;;4940953;28;20067;-79
2024/01/31 00:05:02;;;;;;;5.07;2.30;;;11.80;84.60;;;;;;4941870;28;20103;-79
2024/01/31 00:07:27;;;;;;;4.40;2.25;;;11.80;84.60;;;;;;4941926;28;20023;-79
2024/01/31 00:09:53;;;;;;;3.40;2.00;;;11.80;84.60;;;;;;4941474;28;20023;-78
2024/01/31 00:12:18;;;;;;;3.80;2.20;;;11.80;84.70;;;;;;4941309;28;20024;-79
2024/01/31 00:14:44;;;;;;;3.28;1.92;;;11.80;84.60;;;;;;4941835;28;20027;-79
2024/01/31 00:17:10;;;;;;;4.43;2.20;;;11.80;84.60;;;;;;4956428;28;20038;-79
2024/01/31 00:19:36;;;;;;;3.42;1.90;;;11.80;84.70;;;;;;4977113;28;20043;-79
2024/01/31 00:22:01;;;;;;;4.57;2.50;;;11.80;84.60;;;;;;4960262;28;20066;-79
2024/01/31 00:24:27;;;;;;;4.80;2.20;;;11.80;84.60;;;;;;4959839;28;20031;-78
2024/01/31 00:26:53;;;;;;;3.90;2.22;;;11.80;84.60;;;;;;4976846;28;20038;-79
2024/01/31 00:29:18;;;;;;;4.03;2.05;;;11.80;84.60;;;;;;4975991;28;20011;-78
2024/01/31 00:31:44;;;;;;;3.53;2.00;;;11.80;84.60;;;;;;4960137;28;20023;-79
2024/01/31 00:34:10;;;;;;;3.88;2.17;;;11.70;84.60;;;;;;4959715;28;20019;-79
2024/01/31 00:36:35;;;;;;;3.15;1.80;;;11.80;84.60;;;;;;4976952;28;20031;-79
2024/01/31 00:39:01;;;;;;;3.83;2.03;;;11.80;84.60;;;;;;4960361;28;20047;-79
2024/01/31 00:41:26;;;;;;;4.22;1.90;;;11.80;84.60;;;;;;4960218;28;20123;-79
2024/01/31 00:43:52;;;;;;;3.63;2.10;;;11.80;84.60;;;;;;4960071;28;20031;-78
2024/01/31 00:46:17;;;;;;;3.55;2.10;;;11.80;84.60;;;;;;4959920;28;20034;-79
2024/01/31 00:48:43;;;;;;;4.15;2.00;;;11.80;84.60;;;;;;4960440;28;20031;-78
2024/01/31 00:51:12;;;;;;;3.88;2.10;;;11.70;84.70;;;;;;4959551;28;20039;-78
2024/01/31 00:53:38;;;;;;;4.15;2.10;;;11.80;84.60;;;;;;4960109;28;20043;-79
2024/01/31 00:56:04;;;;;;;3.50;2.03;;;11.70;84.60;;;;;;4960296;28;20022;-79
2024/01/31 00:58:34;;;;;;;3.90;2.10;;;11.80;84.60;;;;;;4960158;28;20083;-79
2024/01/31 01:01:00;;;;;;;3.15;1.80;;;11.80;84.70;;;;;;4960317;28;20033;-79
2024/01/31 01:03:25;;;;;;;3.70;2.05;;;11.70;84.60;;;;;;4959222;28;20039;-79
2024/01/31 01:05:51;;;;;;;4.03;2.20;;;11.80;84.60;;;;;;4960341;28;20012;-79
2024/01/31 01:08:16;;;;;;;3.47;1.90;;;11.70;84.60;;;;;;4959765;28;20011;-77
2024/01/31 01:10:42;;;;;;;3.85;2.10;;;11.70;84.60;;;;;;4976669;28;20019;-79
2024/01/31 01:13:07;;;;;;;4.00;1.98;;;11.90;84.70;;;;;;4959577;29;20112;-79
2024/01/31 01:15:33;;;;;;;3.80;1.90;;;11.90;84.70;;;;;;4960410;28;20031;-79
2024/01/31 01:17:58;;;;;;;3.92;2.10;;;11.80;84.60;;;;;;4976963;28;20012;-79
2024/01/31 01:20:24;;;;;;;3.58;1.92;;;11.80;84.70;;;;;;4976513;28;20031;-79
2024/01/31 01:22:50;;;;;;;3.22;1.70;;;11.70;84.60;;;;;;4976032;28;20055;-79
2024/01/31 01:25:16;;;;;;;4.40;2.05;;;11.70;84.60;;;;;;4959383;28;20015;-79
2024/01/31 01:27:48;;;;;;;2.97;1.60;;;11.80;84.70;;;;;;4959536;28;20035;-79
2024/01/31 01:30:13;;;;;;;2.90;1.73;;;11.80;84.70;;;;;;4959853;28;20012;-79
2024/01/31 01:32:39;;;;;;;2.65;1.50;;;11.80;84.70;;;;;;4959243;28;20050;-79
2024/01/31 01:35:05;;;;;;;3.15;1.70;;;11.70;84.60;;;;;;4960427;28;20038;-79
2024/01/31 01:37:32;;;;;;;2.70;1.65;;;11.80;84.70;;;;;;4980448;28;20027;-79
2024/01/31 01:39:58;;;;;;;3.70;1.80;;;11.80;84.70;;;;;;4963161;28;20011;-79
2024/01/31 01:42:24;;;;;;;3.50;1.77;;;11.70;84.60;;;;;;4979568;28;20031;-79
2024/01/31 01:44:49;;;;;;;3.15;1.77;;;11.70;84.70;;;;;;4963728;28;20054;-79
2024/01/31 01:47:16;;;;;;;3.85;1.60;;;11.80;84.70;;;;;;4963357;28;20103;-79
2024/01/31 01:49:42;;;;;;;2.83;1.73;;;11.80;84.70;;;;;;4980383;28;20087;-79
2024/01/31 01:52:09;;;;;;;2.85;1.60;;;11.70;84.60;;;;;;4962641;28;20031;-78
2024/01/31 01:54:36;;;;;;;2.95;1.60;;;11.70;84.60;;;;;;4963092;28;20015;-78
2024/01/31 01:57:02;;;;;;;3.60;1.83;;;11.80;84.70;;;;;;4962663;28;20008;-79
2024/01/31 01:59:28;;;;;;;2.50;1.60;;;11.80;84.70;;;;;;4962920;28;20091;-78
2024/01/31 02:01:53;;;;;;;3.03;1.52;;;11.80;84.70;;;;;;4962418;28;20109;-79
2024/01/31 02:04:21;;;;;;;3.03;1.63;;;11.70;84.60;;;;;;4962898;28;20096;-78
2024/01/31 02:06:47;;;;;;;3.05;1.65;;;11.70;84.60;;;;;;4963154;28;20019;-79
2024/01/31 02:09:13;;;;;;;2.60;1.50;;;11.70;84.60;;;;;;4962408;28;20054;-79
2024/01/31 02:11:38;;;;;;;2.40;1.52;;;11.80;84.70;;;;;;4979764;28;20038;-79
2024/01/31 02:14:04;;;;;;;3.90;1.80;;;11.80;84.70;;;;;;4962341;28;20031;-79
2024/01/31 02:16:31;;;;;;;3.25;1.67;;;12.10;84.80;;;;;;4962870;28;20050;-79
2024/01/31 02:18:56;;;;;;;2.90;1.45;;;11.70;84.60;;;;;;4979562;28;20008;-79
2024/01/31 02:21:27;;;;;;;2.65;1.63;;;11.70;84.60;;;;;;4962637;28;20070;-78
2024/01/31 02:23:52;;;;;;;2.25;1.50;;;11.80;84.70;;;;;;4978886;28;20027;-78
2024/01/31 02:26:18;;;;;;;3.05;1.65;;;11.70;84.60;;;;;;4962834;28;20019;-79
2024/01/31 02:28:43;;;;;;;2.95;1.75;;;11.80;84.70;;;;;;4962602;28;20083;-79
2024/01/31 02:31:09;;;;;;;2.65;1.50;;;11.70;84.60;;;;;;4961992;28;20042;-79
2024/01/31 02:33:35;;;;;;;2.95;1.58;;;12.70;85.20;;;;;;4962172;28;20019;-79
2024/01/31 02:36:02;;;;;;;2.40;1.50;;;11.80;84.70;;;;;;4978949;28;20015;-78
2024/01/31 02:38:28;;;;;;;2.90;1.75;;;11.70;84.60;;;;;;4978948;28;20014;-79
2024/01/31 02:40:54;;;;;;;2.38;1.45;;;11.70;84.70;;;;;;4979467;28;20023;-79
2024/01/31 02:43:19;;;;;;;2.78;1.40;;;11.70;84.60;;;;;;4962031;28;20039;-78
2024/01/31 02:45:45;;;;;;;3.08;1.70;;;11.70;84.60;;;;;;4962386;28;20036;-78
2024/01/31 02:48:10;;;;;;;2.83;1.60;;;11.70;84.70;;;;;;4961685;28;20075;-78
2024/01/31 02:50:36;;;;;;;2.08;1.35;;;11.80;84.70;;;;;;4962374;28;20026;-78
2024/01/31 02:53:01;;;;;;;2.95;1.40;;;11.70;84.70;;;;;;4962073;28;20019;-79
2024/01/31 02:55:27;;;;;;;3.17;1.30;;;11.70;84.70;;;;;;4962641;28;20011;-78
2024/01/31 02:57:53;;;;;;;2.55;1.50;;;11.70;84.70;;;;;;4978942;28;20016;-79
2024/01/31 03:00:19;;;;;;;2.22;1.42;;;11.70;84.60;;;;;;4978971;28;20034;-78
2024/01/31 03:02:44;;;;;;;2.50;1.40;;;11.60;85.10;;;;;;4961815;28;20027;-79
2024/01/31 03:05:11;;;;;;;2.25;1.30;;;11.80;84.70;;;;;;4962162;28;20061;-78
2024/01/31 03:07:37;;;;;;;2.38;1.40;;;11.70;84.60;;;;;;4978433;28;20023;-79
2024/01/31 03:10:03;;;;;;;2.25;1.30;;;11.80;84.70;;;;;;4978582;28;20035;-78
2024/01/31 03:12:29;;;;;;;2.78;1.40;;;11.70;84.70;;;;;;4961347;28;20059;-79
2024/01/31 03:14:54;;;;;;;2.72;1.60;;;11.80;84.70;;;;;;4978225;28;20019;-79
2024/01/31 03:17:20;;;;;;;2.75;1.35;;;11.70;84.60;;;;;;4961800;28;20098;-79
2024/01/31 03:19:46;;;;;;;2.08;1.20;;;11.70;84.60;;;;;;4978565;28;20032;-81
2024/01/31 03:22:11;;;;;;;2.30;1.38;;;11.70;84.70;;;;;;4960868;28;20058;-79
2024/01/31 03:24:38;;;;;;;2.78;1.40;;;11.80;84.70;;;;;;4978756;28;20034;-79
2024/01/31 03:27:04;;;;;;;3.38;1.65;;;11.80;84.70;;;;;;4946667;28;20363;-78
2024/01/31 03:29:30;;;;;;;1.83;1.13;;;11.70;84.70;;;;;;4968667;28;20082;-79
2024/01/31 03:31:55;;;;;;;2.92;1.30;;;11.80;84.70;;;;;;4948099;28;20012;-79
2024/01/31 03:34:21;;;;;;;2.72;1.35;;;11.80;84.70;;;;;;4942274;28;20019;-79
2024/01/31 03:36:46;;;;;;;2.13;1.27;;;11.80;84.70;;;;;;4958393;28;20039;-78
2024/01/31 03:39:12;;;;;;;3.08;1.35;;;11.80;84.70;;;;;;4942490;28;20032;-79
2024/01/31 03:41:46;;;;;;;2.08;1.38;;;11.80;84.70;;;;;;4942060;28;20035;-79
2024/01/31 03:44:13;;;;;;;2.55;1.30;;;11.70;84.70;;;;;;4942225;28;20028;-78
2024/01/31 03:46:39;;;;;;;2.30;1.30;;;11.70;84.70;;;;;;4941094;28;20028;-79
2024/01/31 03:49:04;;;;;;;1.92;1.08;;;11.70;84.70;;;;;;4941763;28;20031;-79
2024/01/31 03:51:30;;;;;;;2.10;1.33;;;11.80;84.70;;;;;;4941515;28;20018;-79
2024/01/31 03:53:55;;;;;;;2.10;1.23;;;11.70;84.60;;;;;;4941115;28;20580;-79
2024/01/31 03:56:21;;;;;;;2.08;1.25;;;11.80;84.70;;;;;;4941512;28;20555;-79
2024/01/31 03:58:47;;;;;;;1.52;1.00;;;11.80;84.70;;;;;;4958011;28;20011;-79
2024/01/31 04:01:17;;;;;;;1.80;1.10;;;11.70;84.70;;;;;;4941935;28;20032;-79
2024/01/31 04:03:45;;;;;;;1.90;1.30;;;11.70;84.70;;;;;;4941164;28;20044;-79
2024/01/31 04:06:11;;;;;;;2.63;1.30;;;11.70;84.70;;;;;;4941453;28;20012;-79
2024/01/31 04:08:36;;;;;;;1.70;1.10;;;11.70;84.70;;;;;;4958200;28;20035;-79
2024/01/31 04:11:02;;;;;;;1.77;1.10;;;11.70;84.70;;;;;;4942120;28;20035;-79
2024/01/31 04:13:28;;;;;;;1.65;1.15;;;11.80;84.70;;;;;;4941536;28;20088;-79
2024/01/31 04:15:54;;;;;;;1.85;1.20;;;11.70;84.70;;;;;;4941685;28;20020;-79
2024/01/31 04:18:19;;;;;;;2.30;1.40;;;11.80;84.70;;;;;;4941395;28;20117;-79
2024/01/31 04:20:45;;;;;;;2.22;1.13;;;11.80;84.70;;;;;;4941381;28;20024;-79
2024/01/31 04:23:11;;;;;;;1.90;1.15;;;11.80;84.70;;;;;;4941278;28;20045;-79
2024/01/31 04:25:37;;;;;;;1.73;1.08;;;11.60;84.60;;;;;;4941434;28;20097;-79
2024/01/31 04:28:02;;;;;;;1.95;1.20;;;11.80;84.70;;;;;;4941374;28;20031;-80
2024/01/31 04:30:28;;;;;;;1.83;1.10;;;11.70;84.70;;;;;;4937266;28;20016;-79
2024/01/31 04:32:53;;;;;;;3.05;1.48;;;11.70;84.70;;;;;;4958454;28;20036;-80
2024/01/31 04:35:19;;;;;;;1.80;1.02;;;11.80;84.70;;;;;;4957510;28;20015;-80
2024/01/31 04:37:45;;;;;;;1.30;0.90;;;11.70;84.70;;;;;;4941698;28;20015;-80
2024/01/31 04:40:11;;;;;;;2.20;1.10;;;11.70;84.70;;;;;;4942309;28;20095;-80
2024/01/31 04:42:38;;;;;;;2.17;1.20;;;11.70;84.70;;;;;;4958093;28;20097;-79
2024/01/31 04:45:04;;;;;;;2.13;1.10;;;13.10;85.50;;;;;;4941214;28;20015;-80
2024/01/31 04:47:31;;;;;;;1.55;1.00;;;11.70;84.70;;;;;;4957772;28;20016;-80
2024/01/31 04:49:58;;;;;;;1.95;1.10;;;11.70;84.70;;;;;;4941385;28;20039;-80
2024/01/31 04:52:24;;;;;;;1.80;1.13;;;11.80;84.80;;;;;;4956875;28;20035;-80
2024/01/31 04:57:25;;;;;;;2.00;1.15;;;11.70;84.70;;;;;;5048507;23;20068;-80
2024/01/31 04:59:51;;;;;;;2.08;1.00;;;11.80;84.70;;;;;;4939310;28;20068;-80
2024/01/31 05:02:16;;;;;;;1.80;0.80;;;11.80;84.70;;;;;;4922288;28;20383;-80
2024/01/31 05:04:42;;;;;;;1.58;1.00;;;11.80;84.70;;;;;;4939256;28;20015;-80
2024/01/31 05:07:24;;;;;;;1.90;1.10;;;11.80;84.70;;;;;;4938329;28;20333;-80
2024/01/31 05:12:27;;;;;;;1.25;0.90;;;11.70;84.70;;;;;;5080397;23;20067;-80
2024/01/31 05:14:53;;;;;;;1.60;1.05;;;11.90;84.80;;;;;;4946297;28;20016;-80
2024/01/31 05:17:22;;;;;;;1.10;0.90;;;11.70;84.70;;;;;;4929680;28;20044;-79
2024/01/31 05:19:49;;;;;;;1.33;0.90;;;11.70;84.70;;;;;;4946382;28;20016;-80
2024/01/31 05:22:15;;;;;;;1.52;0.93;;;11.70;84.70;;;;;;4943023;29;20059;-79
2024/01/31 05:24:41;;;;;;;1.90;1.20;;;12.10;84.90;;;;;;4944098;28;20027;-79
2024/01/31 05:27:08;;;;;;;1.85;0.90;;;11.80;84.70;;;;;;4939522;28;20217;-79
2024/01/31 05:29:34;;;;;;;1.63;1.00;;;11.80;84.80;;;;;;4964956;28;20028;-79
2024/01/31 05:32:00;;;;;;;1.48;1.00;;;12.80;85.30;;;;;;4944319;28;20023;-80
2024/01/31 05:34:27;;;;;;;1.30;0.90;;;11.80;84.70;;;;;;4944083;28;20050;-79
2024/01/31 05:36:53;;;;;;;2.90;1.00;;;11.50;84.60;;;;;;4943553;28;20023;-79
2024/01/31 05:39:19;;;;;;;1.88;1.00;;;11.60;84.60;;;;;;4960009;28;20039;-79
2024/01/31 05:41:45;;;;;;;1.80;1.00;;;11.70;84.70;;;;;;4959164;28;20038;-79
2024/01/31 05:44:11;;;;;;;1.23;1.00;;;11.80;84.80;;;;;;4959178;28;20018;-80
2024/01/31 05:46:36;;;;;;;2.35;0.90;;;11.70;84.70;;;;;;4970447;28;20043;-79
2024/01/31 05:49:02;;;;;;;1.05;0.80;;;11.70;84.70;;;;;;4962554;28;20023;-79
2024/01/31 05:51:29;;;;;;;1.30;0.90;;;11.70;84.70;;;;;;4979158;28;20023;-80
2024/01/31 05:53:54;;;;;;;1.00;0.90;;;11.60;84.60;;;;;;4962297;28;20025;-79
2024/01/31 05:56:21;;;;;;;1.70;1.05;;;11.70;84.70;;;;;;4962330;28;20012;-79
2024/01/31 05:58:46;;;;;;;1.27;0.88;;;11.80;84.80;;;;;;4962708;28;20012;-80
2024/01/31 06:01:12;;;;;;;2.20;0.95;;;11.80;84.80;;;;;;4978097;28;20027;-80
2024/01/31 06:03:38;;;;;;;2.90;1.20;;;11.80;84.80;;;;;;4978987;28;20012;-79
2024/01/31 06:06:04;;;;;;;1.42;1.00;;;11.70;84.70;;;;;;4962991;28;20035;-80
2024/01/31 06:08:34;;;;;;;1.63;0.98;;;11.90;84.80;;;;;;4963095;28;20011;-79
2024/01/31 06:11:04;;;;;;;1.10;0.80;;;12.30;85.10;;;;;;4979515;28;20024;-79
2024/01/31 06:13:30;;;;;;;1.02;0.75;;;11.70;84.70;;;;;;4962955;28;20016;-80
2024/01/31 06:15:56;;;;;;;1.98;1.00;;;11.80;84.80;;;;;;4962835;28;20051;-80
2024/01/31 06:18:22;;;;;;;1.63;0.98;;;11.70;84.70;;;;;;4963664;28;20039;-80
2024/01/31 06:20:51;;;;;;;1.25;0.88;;;12.10;84.90;;;;;;4962233;28;20038;-79
2024/01/31 06:23:17;;;;;;;1.25;0.90;;;11.70;84.70;;;;;;4958419;29;20129;-78
2024/01/31 06:28:19;;;;;;;1.30;0.88;;;11.70;84.70;;;;;;4959088;28;20035;-79
2024/01/31 06:30:58;;;;;;;1.30;0.80;;;11.70;84.70;;;;;;4961039;28;20043;-80
2024/01/31 06:33:29;;;;;;;1.02;0.80;;;12.50;85.20;;;;;;4960571;28;20071;-79
2024/01/31 06:35:55;;;;;;;1.77;0.90;;;11.70;84.70;;;;;;4959346;28;20016;-79
2024/01/31 06:38:21;;;;;;;1.45;1.00;;;11.70;84.70;;;;;;4944485;28;20053;-79
2024/01/31 06:40:49;;;;;;;1.08;0.90;;;11.70;84.70;;;;;;4944535;28;20008;-80
2024/01/31 06:43:15;;;;;;;1.42;0.90;;;11.70;84.70;;;;;;4944629;28;20043;-79
2024/01/31 06:45:41;;;;;;;1.48;0.90;;;11.80;84.80;;;;;;4959874;28;20031;-79
2024/01/31 06:48:09;;;;;;;1.70;1.02;;;11.70;84.70;;;;;;4942838;28;20051;-79
2024/01/31 06:50:35;;;;;;;1.27;0.90;;;11.70;84.80;;;;;;4927389;28;20024;-78
2024/01/31 06:53:00;;;;;;;1.40;1.02;;;11.80;84.80;;;;;;4942980;28;20020;-79
2024/01/31 06:55:28;;;;;;;2.15;1.17;;;11.70;84.80;;;;;;4944245;28;20088;-80
2024/01/31 06:57:54;;;;;;;1.63;0.90;;;11.70;84.80;;;;;;5034029;23;20051;-79
2024/01/31 07:00:20;;;;;;;1.23;0.80;;;11.60;84.70;;;;;;4943324;28;20038;-80
2024/01/31 07:02:46;;;;;;;1.30;0.90;;;11.70;84.80;;;;;;4943758;28;20099;-81
2024/01/31 07:05:14;;;;;;;1.23;0.80;;;11.70;84.80;;;;;;4944730;28;20047;-79
2024/01/31 07:07:40;;;;;;;2.53;1.17;;;11.70;84.70;;;;;;4959241;28;20024;-80
2024/01/31 07:10:06;;;;;;;1.35;0.90;;;11.70;84.80;;;;;;4942613;28;20099;-79
2024/01/31 07:12:32;;;;;;;1.55;0.80;;;11.60;84.70;;;;;;4955321;28;20023;-79
2024/01/31 07:14:58;;;;;;;3.05;1.17;;;11.80;84.80;;;;;;4977684;28;20020;-79
2024/01/31 07:17:24;;;;;;;1.52;0.70;;;11.70;84.70;;;;;;4961385;28;20022;-80
2024/01/31 07:19:49;;;;;;;1.80;0.98;;;11.70;84.70;;;;;;4962028;28;20019;-80
2024/01/31 07:22:15;;;;;;;1.23;0.75;;;11.70;84.70;;;;;;4961259;28;20066;-79
2024/01/31 07:24:41;;;;;;;1.73;0.80;;;11.70;84.80;;;;;;4961753;28;20040;-79
2024/01/31 07:27:07;;;;;;;1.33;0.77;;;11.80;84.80;;;;;;4961549;28;20023;-80
2024/01/31 07:29:36;;;;;;;1.23;0.80;;;11.70;84.80;;;;;;4978138;28;20011;-79
2024/01/31 07:32:05;;;;;;;1.60;0.90;;;11.70;84.70;;;;;;4962498;28;20018;-80
2024/01/31 07:34:32;;;;;;;1.58;0.90;;;11.70;84.80;;;;;;4961906;28;20063;-80
2024/01/31 07:36:57;;;;;;;1.35;0.90;;;11.90;84.80;;;;;;4961588;28;20012;-80
2024/01/31 07:39:24;;;;;;;1.50;0.82;;;11.70;84.80;;;;;;4960185;28;20100;-80
2024/01/31 07:41:50;;;;;;;1.02;0.77;;;11.70;84.80;;;;;;4960672;28;20031;-80
2024/01/31 07:44:15;;;;;;;0.93;0.70;;;11.70;84.80;;;;;;4959413;28;20074;-80
2024/01/31 07:46:41;;;;;;;1.33;0.70;;;11.70;84.80;;;;;;4959583;28;20051;-79
2024/01/31 07:49:06;;;;;;;1.73;0.80;;;11.70;84.80;;;;;;4957510;28;20011;-79
2024/01/31 07:51:40;;;;;;;1.33;0.80;;;11.70;84.80;;;;;;4960273;28;20014;-79
2024/01/31 07:54:05;;;;;;;0.80;0.80;;;11.70;84.80;;;;;;4961675;28;20023;-80
2024/01/31 07:56:31;;;;;;;1.10;0.80;;;11.70;84.80;;;;;;4978154;28;20021;-80
2024/01/31 07:58:57;;;;;;;1.27;0.90;;;11.70;84.70;;;;;;4959379;28;20039;-80
2024/01/31 08:01:22;;;;;;;0.90;0.70;;;11.70;84.70;;;;;;4949134;29;20058;-79
2024/01/31 08:03:48;;;;;;;1.25;0.82;;;11.70;84.70;;;;;;4948928;28;20058;-78
2024/01/31 08:06:13;;;;;;;0.98;0.82;;;11.70;84.70;;;;;;4950033;28;20034;-80
2024/01/31 08:08:42;;;;;;;1.52;0.90;;;11.70;84.70;;;;;;4961348;28;20553;-80
2024/01/31 08:11:09;;;;;;;1.40;1.00;;;12.20;85.00;;;;;;4977810;28;20007;-79
2024/01/31 08:13:35;;;;;;;1.95;1.00;;;11.70;84.70;;;;;;4960861;28;20054;-80
2024/01/31 08:16:00;;;;;;;1.80;0.80;;;11.70;84.80;;;;;;4977913;28;20078;-80
2024/01/31 08:18:29;;;;;;;1.58;0.80;;;11.70;84.70;;;;;;4977607;28;20071;-80
2024/01/31 08:20:54;;;;;;;3.15;0.75;;;11.70;84.60;;;;;;4977949;28;20092;-79
2024/01/31 08:23:20;;;;;;;1.88;0.90;;;11.70;84.60;;;;;;4960900;28;20011;-80
2024/01/31 08:25:45;;;;;;;4.60;0.98;;;11.80;84.70;;;;;;4977834;28;20019;-80
2024/01/31 08:28:11;;;;;;;2.65;0.82;;;11.70;84.60;;;;;;4977586;28;20016;-79
2024/01/31 08:30:37;;;;;;;4.38;1.00;;;11.70;84.60;;;;;;4976923;28;20021;-79
2024/01/31 08:33:02;;;;;;;4.68;0.98;;;11.70;84.60;;;;;;4960393;28;20043;-80
2024/01/31 08:35:28;;;;;;;2.13;0.80;;;11.70;84.70;;;;;;4961333;28;20083;-79
2024/01/31 08:37:55;;;;;;;3.58;0.70;;;11.70;84.60;;;;;;4960739;28;20064;-80
2024/01/31 08:40:20;;;;;;;1.63;0.90;;;11.70;84.70;;;;;;4977486;28;20079;-79
2024/01/31 08:42:46;;;;;;;2.08;0.80;;;11.60;84.60;;;;;;4976736;28;20028;-79
2024/01/31 08:45:11;;;;;;;5.82;1.10;;;11.70;84.70;;;;;;4958003;28;20490;-77
2024/01/31 08:47:37;;;;;;;9.63;1.40;;;11.70;84.70;;;;;;4951401;28;20038;-79
2024/01/31 08:50:03;;;;;;;9.65;1.30;;;11.70;84.60;;;;;;4956816;28;20019;-79
2024/01/31 08:52:28;;;;;;;8.77;1.45;;;11.70;84.60;;;;;;4955841;28;20039;-79
2024/01/31 08:54:54;;;;;;;11.07;1.50;;;11.70;84.60;;;;;;4958961;28;20022;-80
2024/01/31 08:57:20;;;;;;;13.43;1.90;;;11.70;84.50;;;;;;4958565;28;20031;-79
2024/01/31 08:59:45;;;;;;;10.95;1.65;;;11.70;84.50;;;;;;4977260;28;20038;-79
2024/01/31 09:02:11;;;;;;;8.45;1.42;;;11.60;84.50;;;;;;4957227;28;20039;-79
2024/01/31 09:04:36;;;;;;;13.50;1.70;;;11.40;84.40;;;;;;4960655;28;20059;-79
2024/01/31 09:07:02;;;;;;;14.60;1.75;;;11.60;84.50;;;;;;4960773;28;20039;-79
2024/01/31 09:09:28;;;;;;;10.70;1.88;;;11.70;84.60;;;;;;4977368;28;20015;-81
2024/01/31 09:11:53;;;;;;;11.05;1.67;;;11.70;84.60;;;;;;4976914;28;20011;-79
2024/01/31 09:14:19;;;;;;;9.10;1.50;;;11.70;84.60;;;;;;4960276;28;20015;-79
2024/01/31 09:16:44;;;;;;;8.45;1.30;;;11.80;84.60;;;;;;4960108;28;20012;-79
2024/01/31 09:19:10;;;;;;;7.93;1.60;;;11.70;84.60;;;;;;4960050;28;20007;-80
2024/01/31 09:21:36;;;;;;;6.47;1.13;;;11.70;84.60;;;;;;4960176;28;20036;-80
2024/01/31 09:24:01;;;;;;;8.52;1.17;;;11.70;84.60;;;;;;4960236;28;20026;-80
2024/01/31 09:26:27;;;;;;;6.68;1.40;;;11.70;84.60;;;;;;4960096;28;20042;-80
2024/01/31 09:28:52;;;;;;;5.55;1.00;;;11.70;84.60;;;;;;4976898;28;20043;-79
2024/01/31 09:31:26;;;;;;;11.00;1.55;;;11.70;84.60;;;;;;4959980;28;20020;-79
2024/01/31 09:33:53;;;;;;;7.63;1.20;;;11.70;84.60;;;;;;4976401;28;20023;-79
2024/01/31 09:36:19;;;;;;;7.00;1.15;;;11.70;84.60;;;;;;4959886;28;20011;-79
2024/01/31 09:38:47;;;;;;;6.13;1.30;;;11.70;84.60;;;;;;4977027;28;20015;-80
2024/01/31 09:41:16;;;;;;;6.72;1.13;;;11.70;84.60;;;;;;4959886;28;20055;-80
2024/01/31 09:43:45;;;;;;;5.10;1.10;;;11.70;84.60;;;;;;4960269;28;20083;-80
2024/01/31 09:46:12;;;;;;;7.50;1.27;;;11.70;84.60;;;;;;4976611;28;20030;-79
2024/01/31 09:48:39;;;;;;;7.18;1.17;;;11.70;84.60;;;;;;4976456;28;20019;-79
2024/01/31 09:51:06;;;;;;;4.18;1.00;;;11.70;84.50;;;;;;4944193;28;20020;-80
2024/01/31 09:53:36;;;;;;;4.38;1.08;;;11.70;84.50;;;;;;4960219;28;20031;-80
2024/01/31 09:56:04;;;;;;;6.90;1.27;;;11.80;84.60;;;;;;4977203;28;20031;-79
2024/01/31 09:58:30;;;;;;;11.68;1.30;;;11.80;84.60;;;;;;4963427;28;20023;-80
2024/01/31 10:01:06;;;;;;;7.65;1.20;;;11.80;84.60;;;;;;4963165;28;20045;-80
2024/01/31 10:03:31;;;;;;;6.03;1.08;;;11.70;84.50;;;;;;4963031;28;20011;-79
2024/01/31 10:05:57;;;;;;;5.85;1.77;;;11.70;84.50;;;;;;4963554;28;20007;-79
2024/01/31 10:08:22;;;;;;;4.93;0.90;;;11.70;84.50;;;;;;4963703;28;20042;-80
2024/01/31 10:10:50;;;;;;;6.65;1.05;;;11.70;84.50;;;;;;4963557;28;20019;-79
2024/01/31 10:13:16;;;;;;;5.15;0.90;;;11.70;84.40;;;;;;4963504;28;20027;-79
2024/01/31 10:15:43;;;;;;;3.03;0.85;;;11.50;84.40;;;;;;4979805;28;20011;-80
2024/01/31 10:18:08;;;;;;;3.10;0.82;;;11.70;84.50;;;;;;4963119;28;20022;-80
2024/01/31 10:20:34;;;;;;;4.28;1.10;;;11.70;84.40;;;;;;4979601;28;20043;-79
2024/01/31 10:23:00;;;;;;;5.22;1.20;;;11.70;84.40;;;;;;4979039;28;20019;-79
2024/01/31 10:25:26;;;;;;;3.95;0.88;;;11.70;84.40;;;;;;4962559;28;20043;-79
2024/01/31 10:27:52;;;;;;;3.42;1.05;;;11.70;84.30;;;;;;4962830;28;20020;-81
2024/01/31 10:30:18;;;;;;;2.35;0.88;;;11.70;84.30;;;;;;4979901;28;20026;-80
2024/01/31 10:32:45;;;;;;;3.15;0.80;;;11.70;84.30;;;;;;4962550;28;20031;-81
2024/01/31 10:35:12;;;;;;;3.45;0.88;;;11.70;84.30;;;;;;4962555;28;20031;-80
2024/01/31 10:37:37;;;;;;;2.95;0.80;;;11.70;84.30;;;;;;4963166;28;20050;-80
2024/01/31 10:40:07;;;;;;;3.13;0.90;;;11.40;84.10;;;;;;4963450;28;20015;-80
2024/01/31 10:42:33;;;;;;;5.20;0.90;;;11.70;84.30;;;;;;4946853;28;20027;-80
2024/01/31 10:44:59;;;;;;;4.13;0.95;;;11.70;84.20;;;;;;4963921;28;20024;-80
2024/01/31 10:47:29;;;;;;;5.03;1.13;;;11.70;84.20;;;;;;4964348;28;20046;-80
2024/01/31 10:50:09;;;;;;;6.03;1.15;;;11.80;84.30;;;;;;4964282;28;20018;-80
2024/01/31 10:52:52;;;;;;;5.93;0.87;;;11.70;84.30;;;;;;4981632;28;20039;-80
2024/01/31 10:55:21;;;;;;;3.85;1.10;;;11.80;84.40;;;;;;4979212;28;20046;-80
2024/01/31 10:57:48;;;;;;;3.35;0.90;;;11.70;84.30;;;;;;4963183;28;20043;-80
2024/01/31 11:00:32;;;;;;;5.47;1.10;;;11.70;84.40;;;;;;4976621;23;20035;-80
2024/01/31 11:03:00;;;;;;;2.33;0.80;;;11.60;84.30;;;;;;4961431;28;20107;-80
2024/01/31 11:05:39;;;;;;;9.55;1.60;;;11.80;84.40;;;;;;4960884;28;20042;-81
2024/01/31 11:08:20;;;;;;;14.40;1.63;;;11.70;84.30;;;;;;4944556;28;20015;-80
2024/01/31 11:10:47;;;;;;;12.48;1.42;;;11.60;84.20;;;;;;4945333;28;20018;-80
2024/01/31 11:13:13;;;;;;;9.63;1.33;;;11.70;84.10;;;;;;4943266;28;20055;-80
2024/01/31 11:15:40;;;;;;;10.63;1.40;;;11.70;84.00;;;;;;4943640;28;20028;-80
2024/01/31 11:18:11;;;;;;;8.32;1.27;;;11.80;84.00;;;;;;4944335;28;20024;-80
2024/01/31 11:20:47;;;;;;;9.10;1.10;;;11.80;84.00;;;;;;4960026;28;20072;-80
2024/01/31 11:36:08;;;;;;;8.70;1.20;;;11.70;84.20;;;;;;4957939;28;20432;-79
2024/01/31 11:38:33;;;;;;;9.48;1.40;;;11.80;84.20;;;;;;4959811;28;20039;-80
2024/01/31 11:40:59;;;;;;;8.65;1.58;;;11.70;84.20;;;;;;4943873;28;20059;-80
2024/01/31 11:43:25;;;;;;;9.13;1.10;;;11.80;84.80;;;;;;4943546;28;20015;-79
2024/01/31 11:45:50;;;;;;;6.10;1.08;;;11.80;84.30;;;;;;4942317;28;20047;-80
2024/01/31 11:48:16;;;;;;;6.88;1.30;;;11.70;84.20;;;;;;4959370;28;20047;-80
2024/01/31 11:50:42;;;;;;;7.22;1.10;;;11.80;84.30;;;;;;4960517;28;20024;-80
2024/01/31 11:53:08;;;;;;;7.20;1.35;;;11.70;84.30;;;;;;4960935;28;20015;-80
2024/01/31 11:55:35;;;;;;;3.92;1.05;;;11.60;84.30;;;;;;4960719;28;20012;-79
2024/01/31 11:58:00;;;;;;;9.32;1.40;;;11.80;84.30;;;;;;4943907;28;20012;-80
2024/01/31 12:00:26;;;;;;;8.63;1.27;;;11.80;84.30;;;;;;4943150;28;20060;-80
2024/01/31 12:02:56;;;;;;;4.78;1.00;;;11.90;84.40;;;;;;4943085;28;20023;-79
2024/01/31 12:05:21;;;;;;;8.10;1.00;;;11.80;84.30;;;;;;4943074;28;20012;-79
2024/01/31 12:07:58;;;;;;;8.80;1.08;;;11.70;84.30;;;;;;4942821;28;20029;-80
2024/01/31 12:10:27;;;;;;;5.95;1.10;;;11.70;84.30;;;;;;4942275;28;20031;-79
2024/01/31 12:12:55;;;;;;;4.97;1.00;;;11.70;84.20;;;;;;4941657;28;20011;-78
2024/01/31 12:15:21;;;;;;;4.03;1.20;;;11.80;84.30;;;;;;4941402;28;20036;-80
2024/01/31 12:17:47;;;;;;;4.43;0.80;;;11.70;84.30;;;;;;4942075;28;20027;-79
2024/01/31 12:20:16;;;;;;;5.43;1.35;;;11.80;84.30;;;;;;4941252;28;20087;-79
2024/01/31 12:22:49;;;;;;;3.67;0.85;;;11.60;84.20;;;;;;4960513;28;20044;-81
2024/01/31 12:25:16;;;;;;;3.70;0.80;;;11.80;84.20;;;;;;4945403;28;20003;-81
2024/01/31 12:27:42;;;;;;;4.72;1.08;;;11.80;84.20;;;;;;4943857;28;20020;-80
2024/01/31 12:30:09;;;;;;;4.18;1.00;;;11.80;84.20;;;;;;4943711;28;20035;-80
2024/01/31 12:32:35;;;;;;;3.63;0.90;;;11.70;84.20;;;;;;4960137;28;20004;-80
2024/01/31 12:35:01;;;;;;;5.25;1.10;;;11.80;84.30;;;;;;4942772;28;20019;-80
2024/01/31 12:37:27;;;;;;;2.42;0.93;;;11.70;84.20;;;;;;4959782;28;20042;-80
2024/01/31 12:39:54;;;;;;;4.40;0.90;;;11.70;84.20;;;;;;4943809;28;20023;-80
2024/01/31 12:45:15;;;;;;;4.95;0.93;;;11.70;84.20;;;;;;4971969;23;20052;-80
2024/01/31 12:47:40;;;;;;;4.30;1.20;;;11.80;84.20;;;;;;4943368;28;20059;-79
2024/01/31 12:50:06;;;;;;;4.05;1.00;;;11.80;84.20;;;;;;4943123;28;20026;-80
2024/01/31 12:52:32;;;;;;;4.32;1.00;;;11.70;84.20;;;;;;4929682;28;20063;-79
2024/01/31 12:54:57;;;;;;;3.13;0.80;;;11.80;84.20;;;;;;4922347;29;20037;-79
2024/01/31 12:57:23;;;;;;;5.30;0.98;;;11.80;84.20;;;;;;4921601;29;20024;-79
2024/01/31 12:59:49;;;;;;;6.70;1.08;;;11.80;84.10;;;;;;4921174;29;20028;-79
2024/01/31 13:02:15;;;;;;;3.42;1.02;;;11.80;84.00;;;;;;4928580;29;20058;-79
2024/01/31 13:04:40;;;;;;;6.55;1.30;;;11.90;84.10;;;;;;4930441;29;20028;-79